Time;durP1;ratioP1;P1;durP2;ratioP2;P2;SDS_P1;SDS_P2;PMS_P1;PMS_P2;Temp;Humidity;BMP_temperature;BMP_pressure;BME280_temperature;BME280_humidity;BME280_pressure;Samples;Min_cycle;Max_cycle;Signal;HPM_P1;HPM_P2
2022/07/01 00:00:32;;;;;;;0.40;0.22;;;14.00;99.90;;;;;;5074013;28;20119;-73
2022/07/01 00:02:58;;;;;;;1.92;0.50;;;14.20;99.90;;;;;;5074039;28;20048;-70
2022/07/01 00:05:24;;;;;;;1.17;0.50;;;14.30;99.90;;;;;;5073921;28;20394;-75
2022/07/01 00:07:50;;;;;;;2.60;0.30;;;14.30;99.90;;;;;;5073758;28;20032;-70
2022/07/01 00:10:17;;;;;;;1.02;0.40;;;14.30;99.90;;;;;;5073753;28;20089;-76
2022/07/01 00:12:42;;;;;;;1.80;0.60;;;14.30;99.90;;;;;;5073641;28;20567;-72
2022/07/01 00:15:09;;;;;;;2.83;0.45;;;14.20;99.90;;;;;;5055920;28;20048;-63
2022/07/01 00:17:35;;;;;;;2.67;0.50;;;14.00;99.90;;;;;;5070743;28;20044;-75
2022/07/01 00:20:03;;;;;;;0.85;0.32;;;13.90;99.90;;;;;;5073958;28;20487;-69
2022/07/01 00:22:29;;;;;;;1.17;0.63;;;13.90;99.90;;;;;;5073741;28;20510;-76
2022/07/01 00:24:55;;;;;;;2.05;0.40;;;13.70;99.90;;;;;;5073846;28;20115;-76
2022/07/01 00:27:22;;;;;;;2.80;0.43;;;13.80;99.90;;;;;;5073808;28;20050;-76
2022/07/01 00:29:48;;;;;;;3.30;0.70;;;13.80;99.90;;;;;;5073635;28;20395;-76
2022/07/01 00:32:13;;;;;;;1.75;0.40;;;13.70;99.90;;;;;;5073658;28;20050;-74
2022/07/01 00:34:39;;;;;;;3.38;0.93;;;13.70;99.90;;;;;;5073438;28;20086;-73
2022/07/01 00:37:05;;;;;;;1.95;0.50;;;13.80;99.90;;;;;;5072959;28;20048;-74
2022/07/01 00:39:31;;;;;;;2.20;0.32;;;13.90;99.90;;;;;;5073130;28;20051;-65
2022/07/01 00:42:04;;;;;;;3.35;0.52;;;13.80;99.90;;;;;;5073250;28;20066;-75
2022/07/01 00:44:31;;;;;;;2.67;0.40;;;13.80;99.90;;;;;;5070021;28;20095;-75
2022/07/01 00:47:00;;;;;;;1.48;0.45;;;13.70;99.90;;;;;;5073709;28;20033;-75
2022/07/01 00:49:26;;;;;;;0.28;0.20;;;13.70;99.90;;;;;;5073343;28;20511;-75
2022/07/01 00:51:52;;;;;;;2.13;0.50;;;13.70;99.90;;;;;;5073372;28;20032;-75
2022/07/01 00:54:20;;;;;;;1.17;0.60;;;13.80;99.90;;;;;;5073383;28;20032;-75
2022/07/01 00:56:47;;;;;;;1.27;0.50;;;13.90;99.90;;;;;;5073110;28;20048;-75
2022/07/01 00:59:13;;;;;;;1.20;0.43;;;14.00;99.90;;;;;;5073235;28;20530;-74
2022/07/01 01:01:39;;;;;;;0.88;0.52;;;13.60;99.90;;;;;;5073004;28;20559;-75
2022/07/01 01:04:05;;;;;;;3.42;0.60;;;13.60;99.90;;;;;;5072901;28;20035;-75
2022/07/01 01:06:31;;;;;;;2.10;0.45;;;13.60;99.90;;;;;;5073012;28;20040;-72
2022/07/01 01:08:57;;;;;;;2.22;0.43;;;13.40;99.90;;;;;;5073010;28;20044;-75
2022/07/01 01:11:23;;;;;;;0.50;0.40;;;13.30;99.90;;;;;;5073112;28;20037;-73
2022/07/01 01:13:48;;;;;;;4.47;0.47;;;13.30;99.90;;;;;;5073230;28;20036;-75
2022/07/01 01:16:21;;;;;;;2.28;0.63;;;13.40;99.90;;;;;;5073028;28;20051;-74
2022/07/01 01:18:48;;;;;;;2.55;0.30;;;13.30;99.90;;;;;;5073044;28;20041;-65
2022/07/01 01:21:14;;;;;;;1.30;0.50;;;13.50;99.90;;;;;;5071397;28;20041;-74
2022/07/01 01:23:41;;;;;;;1.85;0.50;;;13.60;99.90;;;;;;5072711;28;20067;-71
2022/07/01 01:26:16;;;;;;;1.58;0.43;;;13.50;99.90;;;;;;5072975;28;20173;-74
2022/07/01 01:28:42;;;;;;;4.80;0.70;;;13.40;99.90;;;;;;5072989;28;20591;-75
2022/07/01 01:31:07;;;;;;;0.70;0.30;;;13.20;99.90;;;;;;5072412;28;20052;-69
2022/07/01 01:33:33;;;;;;;2.90;0.40;;;13.10;99.90;;;;;;5072466;28;20147;-75
2022/07/01 01:35:59;;;;;;;2.35;0.40;;;13.10;99.90;;;;;;5072653;28;20063;-74
2022/07/01 01:38:25;;;;;;;3.00;0.68;;;13.10;99.90;;;;;;5072236;28;20028;-67
2022/07/01 01:40:50;;;;;;;1.33;0.40;;;13.10;99.90;;;;;;5072876;28;20048;-75
2022/07/01 01:43:16;;;;;;;1.17;0.40;;;13.10;99.90;;;;;;5073018;28;20036;-74
2022/07/01 01:45:42;;;;;;;2.83;0.40;;;13.10;99.90;;;;;;5072720;28;20114;-75
2022/07/01 01:48:07;;;;;;;2.75;0.50;;;13.20;99.90;;;;;;5072793;28;20086;-75
2022/07/01 01:50:33;;;;;;;3.65;0.47;;;13.20;99.90;;;;;;5072782;28;20082;-72
2022/07/01 01:52:59;;;;;;;3.33;0.30;;;13.10;99.90;;;;;;5072693;28;20040;-75
2022/07/01 01:55:25;;;;;;;2.58;0.30;;;13.00;99.90;;;;;;5072590;28;20044;-75
2022/07/01 01:57:50;;;;;;;1.45;0.40;;;13.00;99.90;;;;;;5072688;28;20059;-75
2022/07/01 02:00:17;;;;;;;0.63;0.20;;;13.00;99.90;;;;;;5072540;28;20037;-67
2022/07/01 02:02:43;;;;;;;1.52;0.30;;;13.00;99.90;;;;;;5071421;28;20051;-75
2022/07/01 02:05:11;;;;;;;2.97;0.38;;;12.90;99.90;;;;;;5072611;28;20119;-75
2022/07/01 02:07:37;;;;;;;0.47;0.25;;;12.70;99.90;;;;;;5072667;28;20048;-67
2022/07/01 02:10:03;;;;;;;1.58;0.47;;;12.70;99.90;;;;;;5075687;28;20110;-75
2022/07/01 02:12:29;;;;;;;1.50;0.30;;;12.60;99.90;;;;;;5076364;28;20040;-67
2022/07/01 02:14:55;;;;;;;0.47;0.30;;;12.60;99.90;;;;;;5076202;28;20541;-76
2022/07/01 02:17:20;;;;;;;1.48;0.40;;;12.50;99.90;;;;;;5076139;28;20044;-75
2022/07/01 02:19:46;;;;;;;0.52;0.40;;;12.50;99.90;;;;;;5076080;28;20538;-75
2022/07/01 02:22:12;;;;;;;0.35;0.25;;;12.40;99.90;;;;;;5076155;28;20040;-70
2022/07/01 02:24:37;;;;;;;5.32;0.35;;;12.40;99.90;;;;;;5076035;28;20044;-74
2022/07/01 02:27:03;;;;;;;1.80;0.38;;;12.50;99.90;;;;;;5075894;28;20067;-75
2022/07/01 02:29:29;;;;;;;1.02;0.40;;;12.60;99.90;;;;;;5074325;28;20078;-75
2022/07/01 02:31:55;;;;;;;1.33;0.30;;;12.80;99.90;;;;;;5075495;28;20074;-75
2022/07/01 02:34:21;;;;;;;1.13;0.45;;;12.90;99.90;;;;;;5075521;28;20044;-69
2022/07/01 02:36:47;;;;;;;0.80;0.20;;;12.80;99.90;;;;;;5075780;28;20048;-64
2022/07/01 02:39:12;;;;;;;1.35;0.40;;;12.80;99.90;;;;;;5067006;28;20045;-67
2022/07/01 02:42:22;;;;;;;0.52;0.22;;;12.70;99.90;;;;;;5055714;28;20045;-72
2022/07/01 02:44:24;;;;;;;0.75;0.20;;;12.60;99.90;;;;;;5055594;28;20057;-75
2022/07/01 02:46:50;;;;;;;3.00;0.40;;;12.50;99.90;;;;;;5055492;28;20029;-76
2022/07/01 02:49:16;;;;;;;0.40;0.20;;;12.50;99.90;;;;;;5055565;28;20036;-76
2022/07/01 02:51:42;;;;;;;0.50;0.20;;;12.30;99.90;;;;;;5055444;28;20037;-73
2022/07/01 02:54:07;;;;;;;0.30;0.20;;;12.30;99.90;;;;;;5055474;28;20044;-76
2022/07/01 02:56:33;;;;;;;0.60;0.20;;;12.10;99.90;;;;;;5055016;28;20080;-75
2022/07/01 02:58:59;;;;;;;0.15;0.15;;;12.10;99.90;;;;;;5055091;28;20057;-74
2022/07/01 03:01:24;;;;;;;0.77;0.30;;;12.10;99.90;;;;;;5055257;28;20071;-74
2022/07/01 03:03:51;;;;;;;1.17;0.40;;;12.20;99.90;;;;;;5055324;28;20048;-62
2022/07/01 03:06:16;;;;;;;3.80;0.30;;;12.40;99.90;;;;;;5055066;28;20029;-75
2022/07/01 03:08:42;;;;;;;1.65;0.30;;;12.30;99.90;;;;;;5055052;28;20048;-75
2022/07/01 03:11:08;;;;;;;1.35;0.20;;;12.20;99.90;;;;;;5055169;28;20037;-75
2022/07/01 03:13:33;;;;;;;5.15;0.98;;;12.20;99.90;;;;;;5055293;28;20044;-68
2022/07/01 03:15:59;;;;;;;0.28;0.20;;;12.10;99.90;;;;;;5054861;28;20443;-65
2022/07/01 03:18:25;;;;;;;2.00;0.30;;;12.10;99.90;;;;;;5054763;28;20044;-71
2022/07/01 03:20:51;;;;;;;3.00;0.28;;;12.30;99.90;;;;;;5053501;28;20033;-67
2022/07/01 03:23:17;;;;;;;1.75;0.30;;;12.30;99.90;;;;;;5054670;28;20044;-76
2022/07/01 03:25:42;;;;;;;0.22;0.20;;;12.40;99.90;;;;;;5054762;28;20415;-75
2022/07/01 03:28:08;;;;;;;4.20;0.43;;;12.50;99.90;;;;;;5055025;28;20123;-75
2022/07/01 03:30:34;;;;;;;2.80;0.40;;;12.40;99.90;;;;;;5054595;28;20098;-76
2022/07/01 03:33:00;;;;;;;0.50;0.30;;;12.60;99.90;;;;;;5054502;28;20041;-76
2022/07/01 03:35:35;;;;;;;1.25;0.40;;;12.60;99.90;;;;;;5053313;28;20508;-68
2022/07/01 03:38:00;;;;;;;0.88;0.40;;;12.60;99.90;;;;;;5074740;28;20549;-76
2022/07/01 03:40:26;;;;;;;0.20;0.20;;;12.50;99.90;;;;;;5074625;28;20037;-75
2022/07/01 03:42:52;;;;;;;1.48;0.40;;;12.60;99.90;;;;;;5074586;28;20525;-75
2022/07/01 03:45:18;;;;;;;2.00;0.40;;;12.50;99.90;;;;;;5074494;28;20455;-75
2022/07/01 03:47:51;;;;;;;2.13;0.47;;;12.50;99.90;;;;;;5074537;28;20044;-76
2022/07/01 03:50:17;;;;;;;0.93;0.20;;;12.50;99.90;;;;;;5074348;28;20098;-75
2022/07/01 03:52:43;;;;;;;1.50;0.20;;;12.30;99.90;;;;;;5074078;28;20037;-73
2022/07/01 03:55:09;;;;;;;1.50;0.30;;;12.40;99.90;;;;;;5074088;28;20044;-76
2022/07/01 03:57:35;;;;;;;1.30;0.20;;;12.40;99.90;;;;;;5074453;28;20067;-74
2022/07/01 04:00:02;;;;;;;0.93;0.30;;;12.40;99.90;;;;;;5074322;28;20068;-76
2022/07/01 04:02:27;;;;;;;0.63;0.20;;;12.20;99.90;;;;;;5074289;28;20040;-76
2022/07/01 04:04:55;;;;;;;1.73;0.30;;;11.90;99.90;;;;;;5074276;28;20503;-76
2022/07/01 04:07:21;;;;;;;1.10;0.30;;;11.90;99.90;;;;;;5074221;28;20040;-62
2022/07/01 04:09:47;;;;;;;4.85;0.28;;;12.10;99.90;;;;;;5074198;28;20037;-75
2022/07/01 04:12:13;;;;;;;0.43;0.20;;;12.10;99.90;;;;;;5074079;28;20043;-76
2022/07/01 04:14:39;;;;;;;0.75;0.45;;;12.20;99.90;;;;;;5074023;28;20044;-72
2022/07/01 04:17:06;;;;;;;1.17;0.30;;;12.20;99.90;;;;;;5068407;28;20053;-62
2022/07/01 04:19:32;;;;;;;1.00;0.30;;;12.10;99.90;;;;;;5066969;28;20434;-65
2022/07/01 04:24:42;;;;;;;0.88;0.40;;;12.20;99.90;;;;;;5073795;28;20062;-76
2022/07/01 04:27:09;;;;;;;0.88;0.40;;;12.20;99.90;;;;;;5073665;28;20033;-77
2022/07/01 04:29:34;;;;;;;0.20;0.20;;;12.30;99.90;;;;;;5071725;28;20070;-77
2022/07/01 04:32:00;;;;;;;1.35;0.43;;;12.20;99.90;;;;;;5073159;28;20099;-77
2022/07/01 04:34:26;;;;;;;6.10;1.02;;;12.30;99.90;;;;;;5073428;28;20451;-75
2022/07/01 04:36:52;;;;;;;1.08;0.32;;;12.30;99.90;;;;;;5073236;28;20412;-78
2022/07/01 04:39:18;;;;;;;1.70;0.32;;;12.30;99.90;;;;;;5073360;28;20039;-73
2022/07/01 04:41:59;;;;;;;1.08;0.50;;;12.20;99.90;;;;;;5073337;28;20105;-67
2022/07/01 04:44:35;;;;;;;0.40;0.25;;;12.30;99.90;;;;;;5073275;28;20048;-78
2022/07/01 04:47:02;;;;;;;1.75;0.20;;;12.30;99.90;;;;;;5073312;28;20170;-75
2022/07/01 04:49:29;;;;;;;1.88;0.32;;;12.40;99.90;;;;;;5072146;28;20085;-73
2022/07/01 04:51:55;;;;;;;0.75;0.35;;;12.40;99.90;;;;;;5071836;28;20036;-71
2022/07/01 04:54:21;;;;;;;1.38;0.47;;;12.40;99.90;;;;;;5072816;28;20127;-75
2022/07/01 04:56:47;;;;;;;8.15;0.63;;;12.50;99.90;;;;;;5073049;28;20088;-66
2022/07/01 04:59:14;;;;;;;1.05;0.40;;;12.50;99.90;;;;;;5072876;28;20048;-76
2022/07/01 05:01:41;;;;;;;3.88;0.70;;;12.50;99.90;;;;;;5072907;28;20045;-69
2022/07/01 05:04:07;;;;;;;2.20;0.50;;;12.60;99.90;;;;;;5073035;28;20048;-65
2022/07/01 05:06:33;;;;;;;0.43;0.40;;;12.70;99.90;;;;;;5072948;28;20059;-78
2022/07/01 05:09:00;;;;;;;2.25;0.52;;;12.80;99.90;;;;;;5072861;28;20136;-78
2022/07/01 05:11:25;;;;;;;1.98;0.50;;;12.80;99.90;;;;;;5073104;28;20075;-78
2022/07/01 05:13:51;;;;;;;3.90;0.50;;;12.90;99.90;;;;;;5073154;28;20079;-66
2022/07/01 05:16:18;;;;;;;2.15;0.70;;;12.80;99.90;;;;;;5071762;28;20052;-73
2022/07/01 05:24:13;;;;;;;5.68;1.00;;;13.30;99.90;;;;;;5073021;28;20074;-68
2022/07/01 05:26:38;;;;;;;4.53;1.02;;;13.60;99.90;;;;;;5072798;28;20028;-70
2022/07/01 05:29:05;;;;;;;2.65;0.55;;;13.60;99.90;;;;;;5072810;28;20028;-76
2022/07/01 05:31:31;;;;;;;1.80;0.70;;;13.50;99.90;;;;;;5070764;28;20127;-75
2022/07/01 05:33:56;;;;;;;4.72;0.52;;;13.80;99.90;;;;;;5070279;28;20119;-76
2022/07/01 05:36:22;;;;;;;1.92;0.50;;;13.70;99.90;;;;;;5071668;28;20693;-67
2022/07/01 05:38:48;;;;;;;1.65;0.63;;;13.80;99.90;;;;;;5071207;28;20094;-74
2022/07/01 05:41:14;;;;;;;2.80;0.73;;;13.80;99.90;;;;;;5072829;28;20119;-75
2022/07/01 05:43:39;;;;;;;1.77;0.52;;;14.00;99.90;;;;;;5073878;28;20584;-76
2022/07/01 05:46:05;;;;;;;2.58;0.70;;;14.00;99.90;;;;;;5076892;28;20076;-75
2022/07/01 05:48:31;;;;;;;3.03;0.88;;;14.20;99.90;;;;;;5076751;28;20047;-68
2022/07/01 05:50:57;;;;;;;2.72;1.10;;;14.30;99.90;;;;;;5076828;28;20048;-74
2022/07/01 05:53:22;;;;;;;1.58;0.80;;;14.20;99.90;;;;;;5076969;28;20032;-75
2022/07/01 05:55:48;;;;;;;4.53;0.80;;;14.30;99.90;;;;;;5076687;28;20083;-71
2022/07/01 05:58:14;;;;;;;5.13;0.75;;;14.40;99.90;;;;;;5076766;28;20093;-75
2022/07/01 06:00:41;;;;;;;5.70;0.85;;;14.70;99.90;;;;;;5076730;28;20033;-75
2022/07/01 06:03:08;;;;;;;4.15;0.90;;;14.50;99.90;;;;;;5076516;28;20036;-75
2022/07/01 06:05:34;;;;;;;4.72;0.93;;;14.70;99.90;;;;;;5076538;28;20044;-71
2022/07/01 06:07:59;;;;;;;11.07;1.00;;;14.70;99.90;;;;;;5076450;28;20047;-66
2022/07/01 06:10:25;;;;;;;4.80;0.60;;;14.70;99.90;;;;;;5076261;28;20055;-72
2022/07/01 06:12:51;;;;;;;4.53;0.70;;;14.90;99.90;;;;;;5076299;28;20097;-69
2022/07/01 06:15:17;;;;;;;3.47;0.95;;;14.80;99.90;;;;;;5076177;28;20494;-72
2022/07/01 06:17:43;;;;;;;5.97;0.88;;;14.70;99.90;;;;;;5076256;28;20094;-71
2022/07/01 06:20:09;;;;;;;4.10;0.80;;;15.10;99.90;;;;;;5076213;28;20033;-75
2022/07/01 06:22:35;;;;;;;3.50;0.80;;;15.40;99.90;;;;;;5072927;28;20044;-68
2022/07/01 06:25:01;;;;;;;2.20;0.68;;;15.60;99.90;;;;;;5076024;28;20035;-71
2022/07/01 06:27:27;;;;;;;3.70;0.77;;;15.50;99.90;;;;;;5074635;28;20577;-74
2022/07/01 06:29:53;;;;;;;6.75;0.82;;;15.80;99.90;;;;;;5074832;28;20040;-73
2022/07/01 06:32:19;;;;;;;4.72;1.15;;;15.60;99.90;;;;;;5074283;28;20032;-74
2022/07/01 06:34:45;;;;;;;1.88;0.50;;;15.60;99.90;;;;;;5075232;28;20127;-71
2022/07/01 06:37:12;;;;;;;6.55;0.88;;;15.40;99.90;;;;;;5074370;28;20139;-74
2022/07/01 06:39:38;;;;;;;4.40;0.60;;;16.30;99.90;;;;;;5075624;28;20044;-68
2022/07/01 06:42:04;;;;;;;2.72;0.70;;;16.90;99.90;;;;;;5075900;28;20032;-74
2022/07/01 06:44:29;;;;;;;3.92;0.90;;;16.90;99.90;;;;;;5075897;28;20041;-74
2022/07/01 06:46:55;;;;;;;5.28;0.95;;;17.30;99.90;;;;;;5075804;28;20040;-69
2022/07/01 06:49:21;;;;;;;7.50;0.80;;;17.30;99.90;;;;;;5075810;28;20047;-69
2022/07/01 06:51:46;;;;;;;1.75;0.60;;;17.60;99.90;;;;;;5075674;28;20070;-69
2022/07/01 06:54:12;;;;;;;4.20;0.98;;;17.60;99.90;;;;;;5075050;28;20044;-74
2022/07/01 06:56:38;;;;;;;6.43;0.90;;;17.70;99.90;;;;;;5075280;28;20131;-71
2022/07/01 06:59:04;;;;;;;4.85;0.75;;;17.10;99.90;;;;;;5075364;28;20045;-74
2022/07/01 07:01:30;;;;;;;3.83;0.65;;;17.30;99.90;;;;;;5075521;28;20044;-75
2022/07/01 07:03:56;;;;;;;6.35;0.60;;;17.30;99.90;;;;;;5075446;28;20491;-68
2022/07/01 07:06:22;;;;;;;5.88;1.17;;;17.50;99.90;;;;;;5075356;28;20025;-67
2022/07/01 07:08:48;;;;;;;3.97;0.80;;;17.80;99.90;;;;;;5075253;28;20044;-74
2022/07/01 07:11:14;;;;;;;3.00;0.82;;;18.30;99.90;;;;;;5075207;28;20064;-74
2022/07/01 07:13:41;;;;;;;1.58;0.70;;;18.50;99.90;;;;;;5075238;28;20079;-74
2022/07/01 07:16:07;;;;;;;2.40;0.80;;;18.60;99.90;;;;;;5075126;28;20578;-72
2022/07/01 07:18:33;;;;;;;2.65;0.82;;;18.00;99.90;;;;;;5075233;28;20047;-74
2022/07/01 07:20:59;;;;;;;4.00;0.90;;;18.30;99.90;;;;;;5075128;28;20127;-73
2022/07/01 07:23:25;;;;;;;4.85;0.80;;;18.80;99.90;;;;;;5074685;28;20055;-74
2022/07/01 07:25:51;;;;;;;7.80;1.27;;;18.80;99.90;;;;;;5075184;28;20048;-68
2022/07/01 07:28:17;;;;;;;2.80;0.60;;;18.90;99.90;;;;;;5075109;28;20052;-67
2022/07/01 07:30:42;;;;;;;2.05;0.82;;;19.00;99.90;;;;;;5074801;28;20044;-72
2022/07/01 07:33:08;;;;;;;1.67;0.57;;;18.20;99.90;;;;;;5074796;28;20065;-74
2022/07/01 07:35:34;;;;;;;3.63;0.90;;;18.40;99.90;;;;;;5074480;28;20048;-67
2022/07/01 07:38:00;;;;;;;6.53;0.80;;;18.60;99.90;;;;;;5074444;28;20165;-74
2022/07/01 07:40:25;;;;;;;1.90;0.70;;;18.70;99.90;;;;;;5074518;28;20036;-74
2022/07/01 07:42:51;;;;;;;2.60;0.57;;;19.40;99.90;;;;;;5074529;28;20441;-67
2022/07/01 07:45:17;;;;;;;3.17;0.60;;;19.20;99.90;;;;;;5074406;28;20127;-73
2022/07/01 07:47:44;;;;;;;3.25;0.65;;;19.40;99.90;;;;;;5074312;28;20040;-74
2022/07/01 07:50:11;;;;;;;4.45;0.90;;;19.50;99.90;;;;;;5074263;28;20040;-75
2022/07/01 07:52:38;;;;;;;2.53;0.98;;;19.00;99.90;;;;;;5074592;28;20537;-73
2022/07/01 07:55:05;;;;;;;6.40;1.02;;;18.20;99.90;;;;;;5073111;28;20109;-74
2022/07/01 07:57:31;;;;;;;6.25;1.13;;;19.20;99.90;;;;;;5074444;28;20146;-67
2022/07/01 07:59:56;;;;;;;3.67;0.80;;;19.70;99.90;;;;;;5074291;28;20060;-74
2022/07/01 08:02:22;;;;;;;4.43;0.70;;;19.70;99.90;;;;;;5073915;28;20049;-74
2022/07/01 08:04:48;;;;;;;2.35;0.60;;;19.40;99.90;;;;;;5073785;28;20478;-69
2022/07/01 08:07:14;;;;;;;3.17;1.08;;;20.00;99.90;;;;;;5073322;28;20032;-71
2022/07/01 08:09:45;;;;;;;3.88;0.80;;;20.60;99.90;;;;;;5074080;28;20070;-73
2022/07/01 08:12:11;;;;;;;5.72;1.25;;;20.80;99.90;;;;;;5074079;28;20039;-75
2022/07/01 08:14:37;;;;;;;0.63;0.40;;;20.30;99.90;;;;;;5072779;28;20415;-69
2022/07/01 08:17:03;;;;;;;1.00;0.43;;;20.10;99.90;;;;;;5074109;28;20052;-74
2022/07/01 08:19:29;;;;;;;3.45;0.50;;;19.60;99.90;;;;;;5066971;28;20044;-76
2022/07/01 08:21:55;;;;;;;4.30;0.70;;;19.80;99.90;;;;;;5057475;28;20036;-65
2022/07/01 08:24:21;;;;;;;7.55;0.98;;;20.30;99.90;;;;;;5071540;28;20044;-75
2022/07/01 08:26:46;;;;;;;2.03;0.50;;;19.20;99.90;;;;;;5072599;28;20047;-75
2022/07/01 08:29:12;;;;;;;3.55;0.77;;;19.80;99.90;;;;;;5072555;28;20040;-74
2022/07/01 08:31:38;;;;;;;2.53;0.80;;;20.00;99.90;;;;;;5073668;28;20041;-75
2022/07/01 08:34:04;;;;;;;4.22;0.85;;;19.60;99.90;;;;;;5073663;28;20048;-74
2022/07/01 08:36:29;;;;;;;3.20;0.60;;;19.40;99.90;;;;;;5073669;28;20090;-72
2022/07/01 08:38:55;;;;;;;1.98;0.50;;;20.10;99.90;;;;;;5073763;28;20043;-74
2022/07/01 08:41:21;;;;;;;2.28;0.55;;;19.80;99.90;;;;;;5073716;28;20037;-71
2022/07/01 08:43:47;;;;;;;2.65;0.73;;;20.10;99.90;;;;;;5073617;28;20430;-75
2022/07/01 08:46:12;;;;;;;2.05;0.70;;;19.70;99.90;;;;;;5073398;28;20040;-68
2022/07/01 08:48:43;;;;;;;3.58;0.60;;;20.10;99.90;;;;;;5073173;28;20609;-71
2022/07/01 08:51:09;;;;;;;2.50;0.70;;;20.50;99.90;;;;;;5073183;28;20040;-74
2022/07/01 08:53:35;;;;;;;1.13;0.50;;;20.10;99.90;;;;;;5073430;28;20075;-75
2022/07/01 08:58:51;;;;;;;2.42;0.43;;;20.90;99.90;;;;;;5072654;28;20453;-66
2022/07/01 09:01:21;;;;;;;3.72;0.73;;;21.50;99.90;;;;;;5073189;28;20470;-76
2022/07/01 09:03:48;;;;;;;5.30;0.98;;;21.50;99.90;;;;;;5073367;28;20124;-72
2022/07/01 09:06:22;;;;;;;3.38;0.80;;;20.90;99.90;;;;;;5073484;28;20044;-65
2022/07/01 09:08:49;;;;;;;3.13;0.60;;;20.50;99.90;;;;;;5073259;28;20024;-70
2022/07/01 09:11:21;;;;;;;4.85;0.68;;;19.70;99.90;;;;;;5072642;28;20044;-75
2022/07/01 09:14:06;;;;;;;2.65;0.70;;;20.10;99.90;;;;;;5073022;28;20039;-67
2022/07/01 09:16:52;;;;;;;1.05;0.40;;;20.60;99.90;;;;;;5072918;28;20492;-75
2022/07/01 09:19:20;;;;;;;2.85;0.65;;;21.20;99.90;;;;;;5071940;28;20509;-75
2022/07/01 09:21:56;;;;;;;2.42;0.55;;;20.70;99.90;;;;;;5072704;28;20055;-69
2022/07/01 09:24:41;;;;;;;4.38;0.80;;;21.90;99.90;;;;;;5064238;28;20068;-66
2022/07/01 09:27:18;;;;;;;1.83;0.93;;;21.10;99.90;;;;;;5051363;28;20460;-65
2022/07/01 09:29:51;;;;;;;2.10;0.70;;;21.00;99.90;;;;;;5065803;28;20040;-65
2022/07/01 09:32:22;;;;;;;4.03;0.65;;;20.70;99.50;;;;;;5051267;28;20033;-66
2022/07/01 09:34:51;;;;;;;2.28;0.50;;;21.00;99.90;;;;;;5051287;28;20052;-65
2022/07/01 09:37:20;;;;;;;1.73;0.50;;;21.00;99.90;;;;;;5051140;28;20052;-66
2022/07/01 09:39:49;;;;;;;6.50;0.70;;;20.20;99.90;;;;;;5049917;28;20033;-65
2022/07/01 09:42:18;;;;;;;7.78;1.25;;;19.10;99.90;;;;;;5049705;28;20095;-65
2022/07/01 09:45:04;;;;;;;2.53;0.60;;;18.60;99.90;;;;;;5050724;28;20470;-70
2022/07/01 09:47:33;;;;;;;2.72;0.60;;;18.80;99.90;;;;;;5050354;28;20041;-65
2022/07/01 09:50:01;;;;;;;3.10;0.50;;;18.30;99.90;;;;;;5050501;28;20064;-66
2022/07/01 09:52:28;;;;;;;2.75;0.70;;;19.40;99.90;;;;;;5049353;28;20049;-67
2022/07/01 09:54:56;;;;;;;3.20;0.77;;;19.60;99.90;;;;;;5050052;28;20040;-67
2022/07/01 09:57:22;;;;;;;2.90;0.60;;;19.90;99.90;;;;;;5050580;28;20621;-66
2022/07/01 09:59:51;;;;;;;3.95;0.80;;;20.30;99.30;;;;;;5050768;28;20029;-67
2022/07/01 10:02:22;;;;;;;1.15;0.38;;;19.70;99.90;;;;;;5033377;28;20710;-67
2022/07/01 10:05:09;;;;;;;3.10;0.40;;;19.10;99.90;;;;;;5050795;28;20082;-71
2022/07/01 10:07:37;;;;;;;3.00;0.60;;;18.60;99.90;;;;;;5078769;28;20044;-66
2022/07/01 10:10:21;;;;;;;8.70;1.08;;;19.00;99.90;;;;;;5070619;28;20037;-65
2022/07/01 10:12:52;;;;;;;1.55;0.50;;;19.40;99.90;;;;;;5072058;28;20048;-69
2022/07/01 10:15:20;;;;;;;3.97;0.50;;;18.60;99.90;;;;;;5069719;28;20044;-65
2022/07/01 10:17:49;;;;;;;1.48;0.30;;;18.70;99.90;;;;;;5068250;28;20063;-68
2022/07/01 10:20:19;;;;;;;3.03;0.50;;;19.10;99.90;;;;;;5070469;28;20514;-67
2022/07/01 10:22:47;;;;;;;3.55;0.60;;;19.80;99.50;;;;;;5069636;28;20032;-66
2022/07/01 10:25:46;;;;;;;3.75;0.80;;;19.50;98.60;;;;;;5070425;28;20063;-73
2022/07/01 10:28:24;;;;;;;5.68;0.50;;;19.10;99.90;;;;;;5071507;28;20048;-66
2022/07/01 10:31:02;;;;;;;5.65;0.75;;;19.30;99.90;;;;;;5073509;28;20039;-66
2022/07/01 10:33:41;;;;;;;2.38;0.57;;;18.90;99.90;;;;;;5072703;28;20513;-66
2022/07/01 10:36:28;;;;;;;2.22;0.93;;;18.70;99.90;;;;;;5073839;28;20058;-68
2022/07/01 10:41:38;;;;;;;7.07;0.60;;;19.40;99.90;;;;;;5073340;28;20032;-67
2022/07/01 10:44:08;;;;;;;6.32;0.90;;;19.50;99.90;;;;;;5074222;28;20043;-67
2022/07/01 10:46:56;;;;;;;4.07;0.80;;;18.80;99.90;;;;;;5073993;28;20051;-69
2022/07/01 10:49:36;;;;;;;1.60;0.50;;;18.70;99.90;;;;;;5074071;28;20464;-68
2022/07/01 10:52:18;;;;;;;4.40;0.70;;;19.10;99.90;;;;;;5074167;28;20519;-67
2022/07/01 10:54:48;;;;;;;3.53;0.60;;;18.90;99.90;;;;;;5073118;28;20036;-69
2022/07/01 10:57:17;;;;;;;1.73;0.70;;;19.30;99.90;;;;;;5072797;28;20033;-68
2022/07/01 10:59:45;;;;;;;4.13;0.73;;;19.00;99.90;;;;;;5073486;28;20860;-66
2022/07/01 11:02:37;;;;;;;2.40;0.70;;;19.20;99.90;;;;;;5072140;28;20044;-67
2022/07/01 11:05:13;;;;;;;2.58;0.90;;;18.80;99.90;;;;;;5065368;28;20041;-67
2022/07/01 11:07:42;;;;;;;1.60;0.63;;;18.90;99.90;;;;;;5074754;28;20503;-67
2022/07/01 11:10:14;;;;;;;2.47;0.68;;;18.50;99.90;;;;;;5074767;28;20047;-66
2022/07/01 11:12:43;;;;;;;2.35;0.47;;;18.90;99.90;;;;;;5075529;28;20033;-66
2022/07/01 11:15:12;;;;;;;2.15;0.60;;;18.90;99.90;;;;;;5073884;28;20871;-70
2022/07/01 11:17:48;;;;;;;3.20;1.00;;;19.50;99.90;;;;;;5071835;28;20483;-68
2022/07/01 11:20:14;;;;;;;2.30;0.52;;;19.80;99.90;;;;;;5087264;28;20094;-72
2022/07/01 11:22:40;;;;;;;2.75;0.60;;;19.60;99.70;;;;;;5072962;28;20040;-69
2022/07/01 11:25:11;;;;;;;1.92;0.57;;;19.50;99.20;;;;;;5064131;28;20643;-68
2022/07/01 11:27:38;;;;;;;5.47;0.82;;;20.20;99.90;;;;;;5089194;28;20061;-73
2022/07/01 11:30:06;;;;;;;1.55;0.45;;;20.60;99.50;;;;;;5094156;28;20043;-73
2022/07/01 11:32:37;;;;;;;3.40;1.10;;;20.60;97.30;;;;;;5093692;28;20071;-66
2022/07/01 11:39:21;;;;;;;;;;;20.60;99.90;;;;;;5095455;28;20043;-73
2022/07/01 11:40:34;;;;;;;2.92;0.90;;;21.00;97.70;;;;;;5093996;28;20089;-65
2022/07/01 11:43:00;;;;;;;2.17;0.50;;;21.20;97.00;;;;;;5094154;28;20024;-71
2022/07/01 11:45:27;;;;;;;1.65;0.40;;;20.40;98.00;;;;;;5094792;28;20043;-69
2022/07/01 11:47:54;;;;;;;3.10;0.70;;;19.90;99.50;;;;;;5094590;28;20460;-72
2022/07/01 11:50:20;;;;;;;5.63;1.15;;;19.40;98.80;;;;;;5093909;28;20487;-73
2022/07/01 11:52:46;;;;;;;1.90;0.70;;;19.40;99.70;;;;;;5094900;28;20119;-73
2022/07/01 11:55:12;;;;;;;1.02;0.30;;;19.10;99.20;;;;;;5094804;28;20131;-70
2022/07/01 11:57:38;;;;;;;3.08;0.68;;;19.10;99.60;;;;;;5094601;28;20078;-68
2022/07/01 12:00:12;;;;;;;2.78;0.40;;;19.60;99.90;;;;;;5086472;28;20060;-72
2022/07/01 12:02:38;;;;;;;1.90;0.63;;;19.30;98.30;;;;;;5090028;28;20051;-70
2022/07/01 12:05:05;;;;;;;3.75;0.50;;;19.50;98.40;;;;;;5071561;28;20596;-72
2022/07/01 12:07:31;;;;;;;1.85;0.47;;;19.60;98.90;;;;;;5071763;28;20265;-72
2022/07/01 12:09:58;;;;;;;2.00;0.65;;;20.20;98.70;;;;;;5069368;28;20035;-72
2022/07/01 12:12:27;;;;;;;4.03;0.60;;;20.20;96.70;;;;;;5072812;28;20067;-69
2022/07/01 12:14:55;;;;;;;3.55;0.52;;;20.20;96.50;;;;;;5073283;28;20055;-71
2022/07/01 12:17:22;;;;;;;2.95;0.38;;;20.70;98.60;;;;;;5073599;28;20052;-70
2022/07/01 12:19:49;;;;;;;1.27;0.40;;;20.20;95.90;;;;;;5072931;28;20139;-73
2022/07/01 12:22:26;;;;;;;3.25;0.55;;;20.60;97.60;;;;;;5073276;28;20040;-73
2022/07/01 12:25:04;;;;;;;3.40;0.40;;;20.90;97.50;;;;;;5069714;28;20044;-72
2022/07/01 12:27:38;;;;;;;4.03;0.57;;;21.00;97.30;;;;;;5070181;28;20032;-72
2022/07/01 12:30:05;;;;;;;2.58;0.50;;;21.20;98.80;;;;;;5072993;28;20123;-72
2022/07/01 12:32:35;;;;;;;2.42;0.70;;;20.30;97.80;;;;;;5073268;28;20041;-73
2022/07/01 12:35:33;;;;;;;1.45;0.55;;;20.30;97.70;;;;;;5073264;28;20052;-66
2022/07/01 12:37:55;;;;;;;1.55;0.40;;;20.60;98.50;;;;;;5073300;28;20127;-64
2022/07/01 12:40:24;;;;;;;4.05;0.70;;;19.60;97.50;;;;;;5073636;28;20551;-68
2022/07/01 12:42:50;;;;;;;1.55;0.52;;;19.60;99.10;;;;;;5073644;28;20051;-70
2022/07/01 12:45:23;;;;;;;2.47;0.65;;;19.80;98.20;;;;;;5073650;28;20538;-72
2022/07/01 12:47:51;;;;;;;1.17;0.40;;;19.90;97.70;;;;;;5073315;28;20095;-72
2022/07/01 12:50:21;;;;;;;1.83;0.60;;;20.30;98.30;;;;;;5072497;28;20039;-74
2022/07/01 12:53:03;;;;;;;;;;;20.10;96.70;;;;;;5073367;28;20119;-71
2022/07/01 12:55:33;;;;;;;1.80;0.32;;;20.30;96.70;;;;;;5072443;28;19920;-71
2022/07/01 12:57:59;;;;;;;2.05;0.60;;;20.30;96.20;;;;;;5072970;28;20052;-66
2022/07/01 13:00:27;;;;;;;1.80;0.47;;;20.40;96.40;;;;;;5072353;28;20056;-68
2022/07/01 13:02:58;;;;;;;4.10;0.50;;;20.50;95.70;;;;;;5073304;28;20044;-72
2022/07/01 13:05:24;;;;;;;2.60;0.80;;;20.60;96.10;;;;;;5073712;28;20043;-67
2022/07/01 13:07:50;;;;;;;3.42;0.70;;;21.10;97.40;;;;;;5073160;28;20037;-72